Time;durP1;ratioP1;P1;durP2;ratioP2;P2;SDS_P1;SDS_P2;PMS_P1;PMS_P2;Temp;Humidity;BMP_temperature;BMP_pressure;BME280_temperature;BME280_humidity;BME280_pressure;Samples;Min_cycle;Max_cycle;Signal;HPM_P1;HPM_P2
2024/02/05 00:00:16;;;;;;;5.63;3.05;;;;;;;7.92;100.00;98727.25;5042686;28;20094;-76
2024/02/05 00:02:42;;;;;;;4.22;2.65;;;;;;;7.91;100.00;98722.13;5046010;28;20111;-76
2024/02/05 00:05:09;;;;;;;5.95;3.97;;;;;;;7.88;100.00;98720.78;5042916;28;20150;-76
2024/02/05 00:07:35;;;;;;;4.75;3.75;;;;;;;7.86;100.00;98720.22;5024874;28;20032;-77
2024/02/05 00:10:05;;;;;;;5.25;3.50;;;;;;;7.93;100.00;98744.00;5025418;28;20044;-77
2024/02/05 00:12:31;;;;;;;4.72;4.13;;;;;;;7.87;100.00;98742.25;5032805;28;20504;-77
2024/02/05 00:14:57;;;;;;;4.70;3.95;;;;;;;7.90;100.00;98752.44;5046913;28;20032;-77
2024/02/05 00:17:22;;;;;;;7.25;3.53;;;;;;;7.93;100.00;98747.44;5046503;28;20029;-77
2024/02/05 00:19:47;;;;;;;5.10;3.80;;;;;;;7.96;100.00;98759.47;5043648;28;20040;-77
2024/02/05 00:22:12;;;;;;;8.57;3.95;;;;;;;8.05;100.00;98750.91;5045553;28;20095;-77
2024/02/05 00:24:38;;;;;;;7.68;4.63;;;;;;;7.92;100.00;98756.47;5045688;28;20029;-77
2024/02/05 00:27:04;;;;;;;6.53;4.78;;;;;;;7.99;100.00;98743.06;5049390;28;20032;-77
2024/02/05 00:29:29;;;;;;;8.50;4.90;;;;;;;8.01;100.00;98746.28;5028162;28;20071;-77
2024/02/05 00:31:54;;;;;;;5.72;4.90;;;;;;;7.92;100.00;98745.84;5042031;28;20259;-77
2024/02/05 00:34:20;;;;;;;7.97;5.07;;;;;;;7.97;100.00;98751.25;5045719;28;20037;-77
2024/02/05 00:36:47;;;;;;;8.35;4.82;;;;;;;7.91;100.00;98735.44;5044348;28;20057;-77
2024/02/05 00:39:13;;;;;;;11.15;4.85;;;;;;;7.92;100.00;98732.56;5032619;28;20043;-77
2024/02/05 00:41:39;;;;;;;9.15;6.43;;;;;;;7.80;100.00;98737.06;5018755;28;20029;-79
2024/02/05 00:44:04;;;;;;;8.65;6.63;;;;;;;7.94;100.00;98753.56;5049566;28;20522;-79
2024/02/05 00:46:30;;;;;;;6.80;5.45;;;;;;;7.94;100.00;98743.75;5028864;28;20083;-79
2024/02/05 00:48:56;;;;;;;9.07;5.18;;;;;;;7.96;100.00;98735.53;5051050;28;20029;-79
2024/02/05 00:51:21;;;;;;;12.27;5.03;;;;;;;7.94;100.00;98742.94;5045966;28;20448;-79
2024/02/05 00:53:47;;;;;;;8.63;5.97;;;;;;;7.91;100.00;98724.78;5012799;28;20102;-79
2024/02/05 00:56:13;;;;;;;7.57;5.25;;;;;;;7.93;100.00;98749.31;5043339;28;20025;-78
2024/02/05 00:58:39;;;;;;;9.25;7.05;;;;;;;7.90;100.00;98747.13;5045530;28;20025;-78
2024/02/05 01:01:04;;;;;;;16.60;7.68;;;;;;;7.98;100.00;98733.44;5042705;28;20040;-78
2024/02/05 01:03:30;;;;;;;14.43;6.65;;;;;;;8.00;100.00;98736.69;5049244;28;20107;-78
2024/02/05 01:05:56;;;;;;;10.57;7.07;;;;;;;8.10;100.00;98742.22;5047678;28;20036;-78
2024/02/05 01:08:21;;;;;;;11.55;6.10;;;;;;;7.97;100.00;98745.94;5049914;28;20048;-77
2024/02/05 01:10:47;;;;;;;13.10;7.22;;;;;;;7.91;100.00;98741.56;5029199;28;20041;-78
2024/02/05 01:13:12;;;;;;;9.25;7.20;;;;;;;7.91;100.00;98751.38;5044983;28;20057;-77
2024/02/05 01:15:37;;;;;;;11.68;6.60;;;;;;;7.92;100.00;98753.00;5049597;28;20094;-77
2024/02/05 01:18:04;;;;;;;9.93;7.30;;;;;;;7.92;100.00;98734.41;5046248;28;20163;-77
2024/02/05 01:20:29;;;;;;;8.93;5.00;;;;;;;7.84;100.00;98748.84;5029624;28;20029;-77
2024/02/05 01:22:54;;;;;;;10.35;6.45;;;;;;;7.86;100.00;98751.28;5047129;28;20033;-77
2024/02/05 01:25:20;;;;;;;11.80;7.22;;;;;;;7.87;100.00;98745.72;5048398;28;20556;-77
2024/02/05 01:27:46;;;;;;;9.57;6.78;;;;;;;7.86;100.00;98748.63;5048614;28;20036;-77
2024/02/05 01:30:13;;;;;;;12.68;7.68;;;;;;;7.82;100.00;98742.94;5001445;28;20037;-77
2024/02/05 01:32:38;;;;;;;10.55;7.20;;;;;;;7.87;100.00;98724.47;5047957;28;20025;-77
2024/02/05 01:35:04;;;;;;;11.15;7.07;;;;;;;7.90;100.00;98741.78;5047360;28;20481;-77
2024/02/05 01:37:29;;;;;;;12.70;7.47;;;;;;;7.94;100.00;98727.00;5045602;28;20056;-76
2024/02/05 01:39:55;;;;;;;11.50;6.78;;;;;;;7.82;100.00;98734.97;5046433;28;20037;-76
2024/02/05 01:42:20;;;;;;;15.23;7.93;;;;;;;7.85;100.00;98734.53;5045428;28;20122;-76
2024/02/05 01:44:46;;;;;;;12.77;7.15;;;;;;;7.97;100.00;98724.66;5044674;28;20048;-79
2024/02/05 01:47:13;;;;;;;13.30;7.38;;;;;;;7.99;100.00;98735.91;5049123;28;20051;-78
2024/02/05 01:49:39;;;;;;;12.07;7.35;;;;;;;7.91;100.00;98735.44;5046171;28;20170;-78
2024/02/05 01:52:11;;;;;;;10.48;7.47;;;;;;;7.95;100.00;98739.25;5044840;28;20053;-77
2024/02/05 01:54:38;;;;;;;11.02;7.00;;;;;;;7.90;100.00;98739.13;5050246;28;20037;-78
2024/02/05 01:57:09;;;;;;;7.82;5.65;;;;;;;7.83;100.00;98741.09;5048940;28;20397;-78
2024/02/05 01:59:35;;;;;;;9.80;7.45;;;;;;;7.87;100.00;98748.38;5047764;28;20905;-77
2024/02/05 02:02:01;;;;;;;10.70;6.25;;;;;;;8.00;100.00;98744.66;5052153;28;20560;-78
2024/02/05 02:04:27;;;;;;;15.02;6.97;;;;;;;7.98;100.00;98755.53;5034403;28;20044;-78
2024/02/05 02:06:53;;;;;;;11.07;5.35;;;;;;;7.96;100.00;98754.16;5049319;28;20041;-77
2024/02/05 02:09:19;;;;;;;4.90;3.92;;;;;;;7.94;100.00;98749.06;5028554;28;20031;-78
2024/02/05 02:11:45;;;;;;;8.05;6.30;;;;;;;7.93;100.00;98751.97;5046590;28;20025;-78
2024/02/05 02:14:10;;;;;;;8.52;5.05;;;;;;;7.94;100.00;98754.38;5046555;28;20039;-78
2024/02/05 02:16:36;;;;;;;9.55;6.78;;;;;;;7.92;100.00;98740.53;5051323;28;20037;-78
2024/02/05 02:19:10;;;;;;;14.20;6.85;;;;;;;7.96;100.00;98757.63;5051157;28;20025;-78
2024/02/05 02:21:37;;;;;;;12.68;7.78;;;;;;;7.94;100.00;98748.25;5032141;28;20047;-78
2024/02/05 02:24:03;;;;;;;14.48;7.85;;;;;;;8.02;100.00;98747.88;5033128;28;20229;-78
2024/02/05 02:26:29;;;;;;;8.82;7.35;;;;;;;8.02;100.00;98745.22;5052143;28;20039;-77
2024/02/05 02:28:54;;;;;;;12.00;7.93;;;;;;;7.98;100.00;98752.06;5044868;28;20037;-76
2024/02/05 02:31:24;;;;;;;11.90;7.28;;;;;;;7.94;100.00;98748.25;5048485;28;20035;-76
2024/02/05 02:34:10;;;;;;;10.55;8.38;;;;;;;7.93;100.00;98744.00;5044643;28;20417;-76
2024/02/05 02:36:40;;;;;;;19.40;8.75;;;;;;;7.87;100.00;98750.22;5050301;28;20107;-76
2024/02/05 02:39:12;;;;;;;11.15;8.07;;;;;;;7.93;100.00;98734.16;5046510;28;20041;-76
2024/02/05 02:41:41;;;;;;;14.00;8.55;;;;;;;7.91;100.00;98751.38;5043085;28;20033;-76
2024/02/05 02:44:07;;;;;;;12.18;9.40;;;;;;;7.96;100.00;98746.16;5046292;28;20037;-76
2024/02/05 02:46:33;;;;;;;12.77;8.20;;;;;;;7.97;100.00;98743.28;5046577;28;20039;-76
2024/02/05 02:48:58;;;;;;;14.73;8.30;;;;;;;8.01;100.00;98748.94;5048142;28;20094;-76
2024/02/05 02:51:24;;;;;;;20.20;8.82;;;;;;;7.91;100.00;98751.38;5049076;28;20076;-76
2024/02/05 02:53:50;;;;;;;13.27;8.32;;;;;;;7.91;100.00;98760.16;5047955;28;20024;-77
2024/02/05 02:56:15;;;;;;;13.98;8.18;;;;;;;7.96;100.00;98757.63;5046892;28;20045;-76
2024/02/05 02:58:41;;;;;;;12.43;7.93;;;;;;;7.97;100.00;98755.78;5050260;28;20028;-77
2024/02/05 03:01:06;;;;;;;8.90;6.97;;;;;;;7.96;100.00;98747.00;5048306;28;20040;-76
2024/02/05 03:03:32;;;;;;;16.15;7.55;;;;;;;7.93;100.00;98760.72;5043873;28;20094;-76
2024/02/05 03:05:58;;;;;;;11.10;7.32;;;;;;;7.87;100.00;98753.69;5043732;28;20024;-76
2024/02/05 03:08:24;;;;;;;11.50;7.80;;;;;;;7.82;100.00;98766.06;5050267;28;20112;-76
2024/02/05 03:10:49;;;;;;;11.35;6.90;;;;;;;7.90;100.00;98755.09;5044895;28;20148;-76
2024/02/05 03:13:15;;;;;;;11.32;7.53;;;;;;;7.96;100.00;98764.78;5044654;28;20393;-76
2024/02/05 03:15:40;;;;;;;11.55;6.82;;;;;;;7.92;100.00;98768.94;5047123;28;20029;-76
2024/02/05 03:18:07;;;;;;;10.20;7.35;;;;;;;7.97;100.00;98763.75;5034171;28;20032;-76
2024/02/05 03:20:35;;;;;;;14.63;9.27;;;;;;;7.97;100.00;98766.41;5046486;28;20086;-76
2024/02/05 03:23:03;;;;;;;16.05;9.10;;;;;;;7.91;100.00;98764.66;5027231;28;20049;-76
2024/02/05 03:25:28;;;;;;;18.73;9.05;;;;;;;7.80;100.00;98765.50;5046495;28;20135;-77
2024/02/05 03:27:57;;;;;;;13.68;8.85;;;;;;;7.95;100.00;98776.47;5026622;28;20119;-77
2024/02/05 03:30:23;;;;;;;15.77;10.10;;;;;;;7.84;100.00;98764.78;5044630;28;20116;-76
2024/02/05 03:32:49;;;;;;;26.27;11.55;;;;;;;7.88;100.00;98762.47;5043569;28;20033;-77
2024/02/05 03:35:16;;;;;;;18.17;11.25;;;;;;;7.80;100.00;98766.28;5046252;28;20037;-77
2024/02/05 03:37:44;;;;;;;28.08;12.23;;;;;;;7.87;100.00;98774.13;5046244;28;20026;-76
2024/02/05 03:40:11;;;;;;;27.08;12.63;;;;;;;7.84;100.00;98772.75;5046015;28;20120;-76
2024/02/05 03:42:36;;;;;;;22.15;13.70;;;;;;;7.83;100.00;98779.13;5047379;28;20048;-77
2024/02/05 03:45:02;;;;;;;22.40;13.77;;;;;;;7.94;100.00;98775.66;5043907;28;20305;-77
2024/02/05 03:47:27;;;;;;;23.27;12.82;;;;;;;7.87;100.00;98782.94;5044232;28;20024;-77
2024/02/05 03:49:53;;;;;;;22.92;11.95;;;;;;;7.83;100.00;98765.84;5040909;28;20493;-77
2024/02/05 03:52:18;;;;;;;21.80;13.13;;;;;;;7.89;100.00;98766.75;5047771;28;20036;-78
2024/02/05 03:54:46;;;;;;;24.42;12.63;;;;;;;7.89;100.00;98772.06;5046621;28;20033;-77
2024/02/05 03:57:12;;;;;;;23.20;12.98;;;;;;;7.87;100.00;98779.44;5046268;28;20025;-77
2024/02/05 03:59:38;;;;;;;20.23;12.88;;;;;;;7.82;100.00;98768.72;5047553;28;20044;-78
2024/02/05 04:02:03;;;;;;;21.20;12.15;;;;;;;7.89;100.00;98769.41;5030444;28;20561;-78
2024/02/05 04:04:29;;;;;;;18.85;12.68;;;;;;;7.81;100.00;98775.06;5049941;28;20037;-78
2024/02/05 04:06:54;;;;;;;25.45;13.07;;;;;;;7.97;100.00;98785.78;5044797;28;20044;-78
2024/02/05 04:09:20;;;;;;;18.83;11.48;;;;;;;7.86;100.00;98780.50;5008508;28;20148;-78
2024/02/05 04:11:45;;;;;;;21.73;11.23;;;;;;;7.96;100.00;98788.69;5046639;28;20037;-77
2024/02/05 04:14:10;;;;;;;16.75;11.68;;;;;;;7.98;100.00;98789.25;5046852;28;20535;-76
2024/02/05 04:16:37;;;;;;;24.70;11.77;;;;;;;7.89;100.00;98788.81;5050582;28;20044;-77
2024/02/05 04:19:02;;;;;;;16.77;11.20;;;;;;;7.85;100.00;98792.16;5042736;28;20040;-77
2024/02/05 04:21:28;;;;;;;16.25;11.30;;;;;;;7.91;100.00;98784.06;5052815;28;20026;-77
2024/02/05 04:23:53;;;;;;;19.77;11.38;;;;;;;7.83;100.00;98779.13;5045252;28;20029;-77
2024/02/05 04:26:18;;;;;;;22.30;11.38;;;;;;;7.80;100.00;98792.84;5050904;28;20032;-77
2024/02/05 04:28:44;;;;;;;26.52;12.05;;;;;;;7.83;100.00;98787.09;5033263;28;20033;-77
2024/02/05 04:31:10;;;;;;;21.13;11.95;;;;;;;7.87;100.00;98790.09;5046918;28;20032;-78
2024/02/05 04:33:36;;;;;;;28.13;13.77;;;;;;;7.90;100.00;98798.41;5050555;28;20033;-77
2024/02/05 04:36:01;;;;;;;19.73;10.63;;;;;;;7.79;100.00;98795.75;5051091;28;20033;-77
2024/02/05 04:38:26;;;;;;;25.95;13.85;;;;;;;7.79;100.00;98799.22;5048981;28;20039;-77
2024/02/05 04:40:52;;;;;;;28.48;15.23;;;;;;;7.75;100.00;98787.44;5051405;28;20021;-77
2024/02/05 04:43:17;;;;;;;36.40;14.07;;;;;;;7.67;100.00;98769.19;5047499;28;20020;-77
2024/02/05 04:45:43;;;;;;;23.50;13.70;;;;;;;7.79;100.00;98782.47;5050275;28;20050;-77
2024/02/05 04:48:08;;;;;;;33.25;15.35;;;;;;;7.81;100.00;98791.00;5046388;28;20124;-77
2024/02/05 04:50:34;;;;;;;29.13;16.17;;;;;;;7.83;100.00;98791.59;5046677;28;20390;-78
2024/02/05 04:52:59;;;;;;;32.03;15.13;;;;;;;7.77;100.00;98793.34;5037821;28;20156;-78
2024/02/05 04:55:25;;;;;;;36.58;19.85;;;;;;;7.81;100.00;98783.03;5056992;28;20021;-77
2024/02/05 04:57:50;;;;;;;53.08;19.63;;;;;;;7.83;100.00;98795.06;5055573;28;20036;-78
2024/02/05 05:00:17;;;;;;;21.60;13.60;;;;;;;7.80;100.00;98800.03;5048577;28;20048;-77
2024/02/05 05:02:43;;;;;;;33.70;16.65;;;;;;;7.73;100.00;98770.94;5044769;28;20035;-77
2024/02/05 05:05:08;;;;;;;46.20;18.10;;;;;;;7.75;100.00;98782.13;5051887;28;20107;-77
2024/02/05 05:07:33;;;;;;;40.75;19.90;;;;;;;7.81;100.00;98783.03;5051241;28;20028;-80
2024/02/05 05:10:00;;;;;;;43.58;20.55;;;;;;;7.74;100.00;98785.00;5047589;28;20049;-77
2024/02/05 05:12:27;;;;;;;44.05;20.33;;;;;;;7.74;100.00;98791.13;5031556;28;20024;-77
2024/02/05 05:14:52;;;;;;;41.03;18.55;;;;;;;7.87;100.00;98788.25;5045998;28;20053;-78
2024/02/05 05:17:17;;;;;;;45.00;21.33;;;;;;;7.74;100.00;98769.06;5047681;28;20067;-76
2024/02/05 05:19:43;;;;;;;43.92;20.45;;;;;;;7.75;100.00;98776.00;5043951;28;20136;-77
2024/02/05 05:22:08;;;;;;;38.25;16.95;;;;;;;7.75;100.00;98771.50;5045510;28;20727;-76
2024/02/05 05:24:33;;;;;;;37.63;18.02;;;;;;;7.82;100.00;98776.69;5048382;28;20452;-77
2024/02/05 05:26:59;;;;;;;46.33;21.10;;;;;;;7.83;100.00;98781.78;5048946;28;20094;-77
2024/02/05 05:29:24;;;;;;;21.50;8.30;;;;;;;7.67;100.00;98761.22;5051300;28;20449;-78
2024/02/05 05:31:49;;;;;;;39.45;18.08;;;;;;;7.81;100.00;98778.53;5027152;28;20028;-77
2024/02/05 05:34:15;;;;;;;38.88;18.77;;;;;;;7.80;100.00;98778.78;5052519;28;20124;-76
2024/02/05 05:36:40;;;;;;;29.80;12.65;;;;;;;7.68;100.00;98768.16;5051434;28;20482;-78
2024/02/05 05:39:06;;;;;;;44.42;18.85;;;;;;;7.68;100.00;98762.03;5047802;28;20481;-77
2024/02/05 05:41:31;;;;;;;34.63;18.35;;;;;;;7.71;100.00;98756.25;5050927;28;20037;-77
2024/02/05 05:43:56;;;;;;;43.45;19.63;;;;;;;7.77;100.00;98780.06;5049613;28;20083;-77
2024/02/05 05:46:22;;;;;;;46.63;18.45;;;;;;;7.90;100.00;98790.44;5050682;28;20032;-77
2024/02/05 05:48:47;;;;;;;32.75;15.00;;;;;;;7.75;100.00;98789.28;5049443;28;20036;-77
2024/02/05 05:51:14;;;;;;;25.83;11.88;;;;;;;7.86;100.00;98810.56;5051172;28;20392;-76
2024/02/05 05:53:40;;;;;;;35.25;17.15;;;;;;;7.85;100.00;98806.25;5032248;28;20033;-78
2024/02/05 05:56:06;;;;;;;35.20;14.50;;;;;;;7.73;100.00;98805.47;5043799;28;20451;-78
2024/02/05 05:58:31;;;;;;;45.78;18.38;;;;;;;7.77;100.00;98805.81;5045907;28;20037;-77
2024/02/05 06:00:57;;;;;;;31.38;17.48;;;;;;;7.81;100.00;98812.28;5049688;28;20029;-77
2024/02/05 06:03:22;;;;;;;45.53;18.25;;;;;;;7.71;100.00;98804.09;5052788;28;20488;-77
2024/02/05 06:05:48;;;;;;;43.88;18.50;;;;;;;7.67;100.00;98808.22;5046027;28;20043;-78
2024/02/05 06:08:14;;;;;;;42.90;19.42;;;;;;;7.68;100.00;98802.69;5047729;28;20063;-78
2024/02/05 06:10:40;;;;;;;39.03;17.75;;;;;;;7.76;100.00;98809.50;5054026;28;20385;-77
2024/02/05 06:13:06;;;;;;;40.28;16.08;;;;;;;7.76;100.00;98820.13;5053456;28;20084;-78
2024/02/05 06:15:31;;;;;;;34.13;15.45;;;;;;;7.71;100.00;98834.09;5054706;28;20518;-77
2024/02/05 06:17:56;;;;;;;33.35;17.63;;;;;;;7.66;100.00;98811.91;5050514;28;20381;-78
2024/02/05 06:20:21;;;;;;;40.70;17.08;;;;;;;7.67;100.00;98814.34;5054348;28;20025;-78
2024/02/05 06:22:47;;;;;;;33.88;17.40;;;;;;;7.73;100.00;98820.59;5051334;28;20120;-77
2024/02/05 06:25:12;;;;;;;30.10;13.93;;;;;;;7.60;100.00;98807.53;5053298;28;20028;-78
2024/02/05 06:27:38;;;;;;;45.22;16.92;;;;;;;7.73;100.00;98804.66;5053274;28;20108;-77
2024/02/05 06:30:04;;;;;;;29.48;14.57;;;;;;;7.74;100.00;98811.56;5052169;28;20040;-77
2024/02/05 06:32:29;;;;;;;42.97;14.73;;;;;;;7.67;100.00;98793.09;5051518;28;20025;-77
2024/02/05 06:34:54;;;;;;;27.33;10.77;;;;;;;7.75;100.00;98803.38;5006138;28;20091;-79
2024/02/05 06:37:20;;;;;;;29.02;15.13;;;;;;;7.63;100.00;98793.78;5054463;28;20030;-77
2024/02/05 06:39:45;;;;;;;37.33;16.45;;;;;;;7.68;100.00;98808.00;5051176;28;20029;-78
2024/02/05 06:42:11;;;;;;;35.30;12.82;;;;;;;7.60;100.00;98795.03;5049068;28;20041;-77
2024/02/05 06:44:37;;;;;;;40.38;17.70;;;;;;;7.53;100.00;98792.50;5051401;28;20571;-77
2024/02/05 06:47:03;;;;;;;38.65;14.38;;;;;;;7.71;100.00;98802.22;5052514;28;20036;-77
2024/02/05 06:49:28;;;;;;;32.42;15.32;;;;;;;7.57;100.00;98808.81;5050499;28;20051;-77
2024/02/05 06:51:54;;;;;;;28.17;9.77;;;;;;;7.57;100.00;98808.81;5047594;28;20029;-76
2024/02/05 06:54:19;;;;;;;21.92;10.85;;;;;;;7.56;100.00;98815.13;5050197;28;20037;-77
2024/02/05 06:56:45;;;;;;;38.67;15.52;;;;;;;7.60;100.00;98810.97;5052864;28;20024;-78
2024/02/05 06:59:10;;;;;;;37.63;16.90;;;;;;;7.68;100.00;98810.66;5053650;28;20116;-78
2024/02/05 07:01:36;;;;;;;31.75;14.82;;;;;;;7.61;100.00;98794.03;5053248;28;20497;-79
2024/02/05 07:04:01;;;;;;;35.00;14.52;;;;;;;7.67;100.00;98808.22;5052339;28;20063;-80
2024/02/05 07:06:26;;;;;;;40.92;16.70;;;;;;;7.68;100.00;98815.16;5052445;28;20064;-76
2024/02/05 07:08:52;;;;;;;39.40;15.75;;;;;;;7.65;100.00;98816.41;5049490;28;20115;-78
2024/02/05 07:11:17;;;;;;;48.15;17.80;;;;;;;7.69;100.00;98822.09;5016871;28;20056;-77
2024/02/05 07:13:42;;;;;;;37.28;16.65;;;;;;;7.76;100.00;98822.78;5033937;28;20029;-77
2024/02/05 07:16:14;;;;;;;46.42;15.05;;;;;;;7.62;100.00;98819.56;5052434;28;20120;-77
2024/02/05 07:18:40;;;;;;;38.70;15.75;;;;;;;7.67;99.39;98824.16;5051467;28;20090;-77
2024/02/05 07:21:06;;;;;;;34.05;17.40;;;;;;;7.67;99.46;98829.47;5052413;28;20553;-77
2024/02/05 07:23:31;;;;;;;36.42;16.13;;;;;;;7.53;99.84;98813.75;5052439;28;20112;-77
2024/02/05 07:25:57;;;;;;;57.13;17.67;;;;;;;7.54;99.86;98836.63;5047766;28;20394;-77
2024/02/05 07:28:22;;;;;;;30.30;14.70;;;;;;;7.67;99.58;98867.47;5048787;28;20036;-78
2024/02/05 07:30:47;;;;;;;37.08;17.33;;;;;;;7.80;98.36;98842.56;5052999;28;20028;-78
2024/02/05 07:33:13;;;;;;;49.25;16.95;;;;;;;7.64;98.90;98851.19;5054483;28;20497;-80
2024/02/05 07:35:38;;;;;;;37.78;17.40;;;;;;;7.61;98.54;98843.66;5060737;28;20460;-79
2024/02/05 07:38:04;;;;;;;40.13;15.38;;;;;;;7.68;98.64;98849.69;5020662;28;20037;-79
2024/02/05 07:40:29;;;;;;;44.80;17.85;;;;;;;7.75;97.96;98851.22;5019471;28;20025;-79
2024/02/05 07:42:54;;;;;;;32.08;12.13;;;;;;;7.61;98.84;98827.72;5051039;28;20119;-78
2024/02/05 07:45:20;;;;;;;36.58;13.73;;;;;;;7.55;98.66;98846.22;5052176;28;20044;-78
2024/02/05 07:47:45;;;;;;;39.70;14.85;;;;;;;7.53;98.72;98847.47;5047639;28;20021;-77
2024/02/05 07:50:10;;;;;;;43.67;12.90;;;;;;;7.55;99.40;98861.34;5048021;28;20044;-77
2024/02/05 07:52:36;;;;;;;47.70;15.75;;;;;;;7.56;98.59;98829.22;5052878;28;20025;-78
2024/02/05 07:55:01;;;;;;;39.17;14.85;;;;;;;7.61;97.08;98825.06;5032942;28;20489;-79
2024/02/05 07:57:26;;;;;;;45.47;15.18;;;;;;;7.62;98.14;98840.00;5056087;28;20024;-77
2024/02/05 07:59:52;;;;;;;34.63;14.88;;;;;;;7.62;97.54;98843.47;5051277;28;20079;-77
2024/02/05 08:02:17;;;;;;;35.03;14.13;;;;;;;7.69;97.31;98860.06;5050342;28;20029;-78
2024/02/05 08:04:43;;;;;;;36.75;14.20;;;;;;;7.64;96.68;98848.53;5047559;28;20544;-77
2024/02/05 08:07:08;;;;;;;26.45;10.38;;;;;;;7.51;96.79;98847.69;5035759;28;20389;-77
2024/02/05 08:09:34;;;;;;;33.47;13.02;;;;;;;7.59;96.87;98859.84;5051556;28;20035;-77
2024/02/05 08:11:59;;;;;;;36.50;12.45;;;;;;;7.60;96.37;98860.66;5041015;28;20102;-77
2024/02/05 08:14:25;;;;;;;37.85;14.77;;;;;;;7.67;96.24;98864.81;5032519;28;20190;-77
2024/02/05 08:16:50;;;;;;;38.90;14.32;;;;;;;7.77;95.14;98858.94;5050818;28;20512;-77
2024/02/05 08:19:15;;;;;;;35.10;13.68;;;;;;;7.68;95.45;98855.00;5041674;28;20070;-77
2024/02/05 08:21:41;;;;;;;30.30;12.13;;;;;;;7.71;95.99;98870.50;5044719;28;20386;-77
2024/02/05 08:24:06;;;;;;;37.50;14.93;;;;;;;7.67;95.09;98874.63;5032260;28;20047;-77
2024/02/05 08:26:33;;;;;;;35.53;12.77;;;;;;;7.70;95.39;98874.16;5049467;28;20031;-77
2024/02/05 08:28:59;;;;;;;33.22;12.25;;;;;;;7.82;95.42;98867.03;5046202;28;20039;-78
2024/02/05 08:31:24;;;;;;;21.85;9.63;;;;;;;7.72;95.07;98893.34;5052075;28;20038;-78
2024/02/05 08:33:50;;;;;;;37.63;12.52;;;;;;;7.81;94.03;98860.91;5029167;28;20033;-77
2024/02/05 08:36:16;;;;;;;29.60;13.65;;;;;;;7.79;94.80;98857.69;5050287;28;20091;-77
2024/02/05 08:38:42;;;;;;;33.45;11.95;;;;;;;7.81;94.85;98865.41;5051790;28;20033;-77
2024/02/05 08:41:12;;;;;;;38.50;14.13;;;;;;;7.79;93.44;98856.84;5051620;28;20029;-78
2024/02/05 08:43:38;;;;;;;26.08;11.75;;;;;;;7.84;93.74;98862.31;5048545;28;20131;-77
2024/02/05 08:46:03;;;;;;;24.30;12.18;;;;;;;7.88;93.17;98866.13;5048125;28;20107;-78
2024/02/05 08:48:30;;;;;;;24.55;9.20;;;;;;;7.85;92.07;98853.28;5050248;28;20033;-77
2024/02/05 08:50:55;;;;;;;28.08;11.30;;;;;;;7.81;92.80;98857.44;5051907;28;20029;-77
2024/02/05 08:53:20;;;;;;;30.20;11.65;;;;;;;7.75;91.87;98867.16;5050644;28;20029;-77
2024/02/05 08:55:45;;;;;;;26.40;13.00;;;;;;;7.78;91.61;98858.69;5050401;28;20094;-77
2024/02/05 08:58:11;;;;;;;30.67;11.73;;;;;;;7.72;91.95;98878.22;5048351;28;20028;-77
2024/02/05 09:00:36;;;;;;;30.27;12.50;;;;;;;7.93;92.13;98879.53;5047572;28;20060;-77
2024/02/05 09:03:02;;;;;;;37.67;12.82;;;;;;;7.89;91.97;98876.50;5051716;28;20056;-77
2024/02/05 09:05:28;;;;;;;26.60;8.70;;;;;;;7.92;92.48;98878.72;5052911;28;20032;-77
2024/02/05 09:07:53;;;;;;;28.60;12.30;;;;;;;7.96;92.44;98866.56;5061209;28;20020;-78
2024/02/05 09:10:19;;;;;;;31.55;10.40;;;;;;;7.98;91.83;98869.81;5055734;28;20035;-77
2024/02/05 09:12:45;;;;;;;25.65;10.60;;;;;;;7.95;91.99;98880.09;5055461;28;20029;-77
2024/02/05 09:15:10;;;;;;;24.83;10.82;;;;;;;7.91;91.68;98865.63;5054148;28;20082;-78
2024/02/05 09:17:36;;;;;;;25.38;8.98;;;;;;;7.94;91.16;98868.66;5047021;28;20528;-77
2024/02/05 09:20:02;;;;;;;21.90;9.27;;;;;;;8.01;91.95;98865.88;5035610;28;20037;-77
2024/02/05 09:22:27;;;;;;;30.20;10.13;;;;;;;8.06;91.19;98866.00;5053721;28;20056;-77
2024/02/05 09:24:53;;;;;;;20.58;5.85;;;;;;;8.08;90.36;98883.31;5048900;28;20027;-76
2024/02/05 09:27:18;;;;;;;30.90;9.98;;;;;;;8.07;90.94;98896.84;5052922;28;20120;-77
2024/02/05 09:29:44;;;;;;;15.02;7.43;;;;;;;8.08;91.03;98871.91;5052754;28;20036;-77
2024/02/05 09:32:09;;;;;;;21.30;8.88;;;;;;;8.06;91.61;98896.03;5053394;28;20047;-79
2024/02/05 09:34:38;;;;;;;10.50;5.25;;;;;;;8.08;90.25;98893.16;5053561;28;20032;-77
2024/02/05 09:37:04;;;;;;;27.95;10.13;;;;;;;8.01;90.78;98873.84;5053940;28;20107;-76
2024/02/05 09:39:29;;;;;;;26.83;10.35;;;;;;;8.22;90.40;98895.34;5053005;28;20104;-77
2024/02/05 09:42:04;;;;;;;38.42;8.30;;;;;;;8.09;90.14;98892.94;5047342;28;20033;-77
2024/02/05 09:44:35;;;;;;;20.77;8.48;;;;;;;8.21;90.59;98920.31;5051734;28;20075;-77
2024/02/05 09:47:00;;;;;;;25.20;9.98;;;;;;;8.28;89.64;98901.59;5052829;28;20554;-77
2024/02/05 09:49:26;;;;;;;24.40;8.63;;;;;;;8.24;89.85;98903.91;5052767;28;20032;-77
2024/02/05 09:51:53;;;;;;;26.60;8.50;;;;;;;8.34;90.57;98898.03;5053136;28;20033;-77
2024/02/05 09:54:19;;;;;;;31.33;7.65;;;;;;;8.23;89.74;98896.16;5053783;28;20036;-77
2024/02/05 09:56:45;;;;;;;26.55;8.57;;;;;;;8.34;89.31;98886.59;5049053;28;20033;-77
2024/02/05 09:59:11;;;;;;;22.23;7.00;;;;;;;8.32;89.22;98894.81;5046786;28;20056;-77
2024/02/05 10:01:38;;;;;;;24.33;7.75;;;;;;;8.32;89.20;98900.91;5053096;28;20053;-78
2024/02/05 10:04:09;;;;;;;26.98;8.50;;;;;;;8.37;88.21;98894.91;5042771;28;20025;-77
2024/02/05 10:06:39;;;;;;;28.67;7.78;;;;;;;8.34;88.23;98903.34;5051473;28;20036;-78
2024/02/05 10:09:10;;;;;;;17.55;5.38;;;;;;;8.40;87.57;98896.28;5053475;28;20043;-78
2024/02/05 10:11:43;;;;;;;28.77;9.88;;;;;;;8.34;88.06;98889.25;5034860;28;20941;-78
2024/02/05 10:14:09;;;;;;;18.85;6.28;;;;;;;8.49;88.19;98892.22;5046464;28;20108;-78
2024/02/05 10:16:37;;;;;;;31.75;10.43;;;;;;;8.46;88.01;98898.00;5047671;28;20033;-77
2024/02/05 10:19:04;;;;;;;22.92;8.40;;;;;;;8.50;87.40;98884.00;5049195;28;20037;-77
2024/02/05 10:21:31;;;;;;;23.77;7.28;;;;;;;8.54;87.59;98903.78;5053362;28;20033;-78
2024/02/05 10:23:56;;;;;;;21.73;7.72;;;;;;;8.54;87.19;98893.13;5049773;28;20489;-77
2024/02/05 10:26:26;;;;;;;22.00;6.70;;;;;;;8.52;86.29;98889.13;5052161;28;20041;-77
2024/02/05 10:28:51;;;;;;;21.10;7.35;;;;;;;8.50;86.16;98896.50;5051706;28;20029;-78
2024/02/05 10:31:17;;;;;;;24.52;7.32;;;;;;;8.53;86.73;98891.53;5050902;28;20098;-77
2024/02/05 10:33:43;;;;;;;16.60;5.57;;;;;;;8.51;87.03;98896.28;5049767;28;20024;-77
2024/02/05 10:36:11;;;;;;;26.42;9.15;;;;;;;8.46;85.44;98879.38;5035400;28;20484;-77
2024/02/05 10:38:37;;;;;;;22.05;7.65;;;;;;;8.57;87.19;98879.38;5052818;28;20492;-78
2024/02/05 10:41:06;;;;;;;14.30;5.85;;;;;;;8.55;86.78;98886.78;5050672;28;20062;-77
2024/02/05 10:43:32;;;;;;;10.95;5.07;;;;;;;8.50;85.75;98865.38;5034484;28;20036;-77
2024/02/05 10:45:58;;;;;;;16.23;6.53;;;;;;;8.61;86.25;98883.19;5034963;28;20032;-77
2024/02/05 10:48:24;;;;;;;14.80;5.20;;;;;;;8.58;85.01;98874.88;5053746;28;20461;-79
2024/02/05 10:50:50;;;;;;;29.23;8.13;;;;;;;8.56;85.56;98863.66;5051886;28;20556;-78
2024/02/05 10:53:16;;;;;;;27.85;6.00;;;;;;;8.58;84.71;98867.72;5059045;28;20024;-77
2024/02/05 10:55:44;;;;;;;14.45;7.00;;;;;;;8.60;84.47;98870.94;5064356;28;20031;-78
2024/02/05 10:58:11;;;;;;;18.92;6.22;;;;;;;8.65;84.94;98865.69;5054550;28;20446;-78
2024/02/05 11:00:37;;;;;;;18.90;5.35;;;;;;;8.69;85.47;98861.53;5060085;28;20033;-78
2024/02/05 11:03:07;;;;;;;13.02;4.13;;;;;;;8.64;84.33;98877.41;5057328;28;20041;-78
2024/02/05 11:05:34;;;;;;;20.08;6.70;;;;;;;8.65;84.22;98857.72;5052155;28;20028;-78
2024/02/05 11:08:01;;;;;;;25.20;8.73;;;;;;;8.74;84.05;98864.28;5035075;28;20033;-78
2024/02/05 11:10:29;;;;;;;24.00;8.20;;;;;;;8.61;84.10;98845.13;5051721;28;20497;-78
2024/02/05 11:13:02;;;;;;;25.05;6.93;;;;;;;8.80;83.47;98868.66;5059358;28;20045;-78
2024/02/05 11:15:31;;;;;;;18.48;7.88;;;;;;;8.71;83.19;98851.47;5060982;28;20032;-78
2024/02/05 11:18:01;;;;;;;25.95;6.75;;;;;;;8.74;83.60;98847.50;5055166;28;20502;-78